sensor_id;sensor_type;location;lat;lon;timestamp;pressure;altitude;pressure_sealevel;temperature;humidity
42691;BME280;28306;55.744;37.578;2023-03-23T00:02:27;99591.53;;;23.50;21.52
42691;BME280;28306;55.744;37.578;2023-03-23T00:04:53;99591.28;;;23.52;21.75
42691;BME280;28306;55.744;37.578;2023-03-23T00:07:22;99589.69;;;23.56;21.43
42691;BME280;28306;55.744;37.578;2023-03-23T00:09:50;99579.38;;;23.58;21.66
42691;BME280;28306;55.744;37.578;2023-03-23T00:15:04;99584.03;;;23.63;21.35
42691;BME280;28306;55.744;37.578;2023-03-23T00:17:31;99580.81;;;23.66;21.55
42691;BME280;28306;55.744;37.578;2023-03-23T00:19:58;99575.13;;;23.67;21.18
42691;BME280;28306;55.744;37.578;2023-03-23T00:22:26;99569.19;;;23.70;21.38
42691;BME280;28306;55.744;37.578;2023-03-23T00:24:52;99569.72;;;23.72;21.49
42691;BME280;28306;55.744;37.578;2023-03-23T00:27:18;99571.13;;;23.75;21.45
42691;BME280;28306;55.744;37.578;2023-03-23T00:29:43;99561.59;;;23.78;21.44
42691;BME280;28306;55.744;37.578;2023-03-23T00:32:10;99567.63;;;23.80;21.41
42691;BME280;28306;55.744;37.578;2023-03-23T00:34:37;99565.47;;;23.82;21.55
42691;BME280;28306;55.744;37.578;2023-03-23T00:37:03;99558.94;;;23.83;21.16
42691;BME280;28306;55.744;37.578;2023-03-23T00:39:29;99562.25;;;23.85;21.29
42691;BME280;28306;55.744;37.578;2023-03-23T00:41:54;99562.00;;;23.86;21.31
42691;BME280;28306;55.744;37.578;2023-03-23T00:44:29;99560.91;;;23.87;21.14
42691;BME280;28306;55.744;37.578;2023-03-23T00:46:56;99560.41;;;23.90;21.37
42691;BME280;28306;55.744;37.578;2023-03-23T00:49:22;99560.69;;;23.94;21.02
42691;BME280;28306;55.744;37.578;2023-03-23T00:51:55;99556.91;;;23.95;20.96
42691;BME280;28306;55.744;37.578;2023-03-23T00:54:21;99554.72;;;23.97;21.13
42691;BME280;28306;55.744;37.578;2023-03-23T00:56:48;99551.75;;;23.99;21.24
42691;BME280;28306;55.744;37.578;2023-03-23T00:59:14;99555.03;;;24.01;21.07
42691;BME280;28306;55.744;37.578;2023-03-23T01:01:40;99562.66;;;24.04;20.88
42691;BME280;28306;55.744;37.578;2023-03-23T01:04:05;99556.16;;;24.05;20.87
42691;BME280;28306;55.744;37.578;2023-03-23T01:06:32;99553.97;;;24.07;21.22
42691;BME280;28306;55.744;37.578;2023-03-23T01:09:02;99551.00;;;24.08;20.99
42691;BME280;28306;55.744;37.578;2023-03-23T01:11:28;99552.66;;;24.09;21.07
42691;BME280;28306;55.744;37.578;2023-03-23T01:13:54;99551.28;;;24.12;20.85
42691;BME280;28306;55.744;37.578;2023-03-23T01:16:20;99547.22;;;24.15;21.10
42691;BME280;28306;55.744;37.578;2023-03-23T01:18:45;99551.84;;;24.14;20.75
42691;BME280;28306;55.744;37.578;2023-03-23T01:21:12;99545.31;;;24.15;20.67
42691;BME280;28306;55.744;37.578;2023-03-23T01:23:39;99540.47;;;24.17;20.96
42691;BME280;28306;55.744;37.578;2023-03-23T01:26:12;99543.97;;;24.18;20.90
42691;BME280;28306;55.744;37.578;2023-03-23T01:28:38;99539.09;;;24.20;20.66
42691;BME280;28306;55.744;37.578;2023-03-23T01:31:08;99542.38;;;24.22;20.65
42691;BME280;28306;55.744;37.578;2023-03-23T01:33:35;99542.13;;;24.23;20.64
42691;BME280;28306;55.744;37.578;2023-03-23T01:36:04;99543.75;;;24.24;20.74
42691;BME280;28306;55.744;37.578;2023-03-23T01:38:31;99540.75;;;24.26;20.46
42691;BME280;28306;55.744;37.578;2023-03-23T01:40:57;99531.53;;;24.27;20.68
42691;BME280;28306;55.744;37.578;2023-03-23T01:43:23;99528.56;;;24.28;20.41
42691;BME280;28306;55.744;37.578;2023-03-23T01:45:49;99525.56;;;24.30;20.36
42691;BME280;28306;55.744;37.578;2023-03-23T01:48:22;99519.88;;;24.32;20.61
42691;BME280;28306;55.744;37.578;2023-03-23T01:50:53;99516.06;;;24.33;20.61
42691;BME280;28306;55.744;37.578;2023-03-23T01:53:19;99521.25;;;24.34;20.45
42691;BME280;28306;55.744;37.578;2023-03-23T01:55:46;99521.25;;;24.34;20.56
42691;BME280;28306;55.744;37.578;2023-03-23T01:58:23;99521.25;;;24.34;20.52
42691;BME280;28306;55.744;37.578;2023-03-23T02:00:57;99516.63;;;24.35;20.65
42691;BME280;28306;55.744;37.578;2023-03-23T02:03:27;99522.59;;;24.37;20.24
42691;BME280;28306;55.744;37.578;2023-03-23T02:05:54;99516.09;;;24.38;20.45
42691;BME280;28306;55.744;37.578;2023-03-23T02:08:32;99511.47;;;24.38;20.37
42691;BME280;28306;55.744;37.578;2023-03-23T02:11:00;99510.38;;;24.39;20.44
42691;BME280;28306;55.744;37.578;2023-03-23T02:13:27;99508.47;;;24.40;20.34
42691;BME280;28306;55.744;37.578;2023-03-23T02:26:18;99498.44;;;24.45;20.07
42691;BME280;28306;55.744;37.578;2023-03-23T02:28:52;99503.63;;;24.47;20.45
42691;BME280;28306;55.744;37.578;2023-03-23T02:36:29;99488.66;;;24.50;19.98
42691;BME280;28306;55.744;37.578;2023-03-23T02:39:09;99492.22;;;24.50;20.37
42691;BME280;28306;55.744;37.578;2023-03-23T02:41:41;99491.94;;;24.52;20.00
42691;BME280;28306;55.744;37.578;2023-03-23T02:44:08;99497.38;;;24.52;20.34
42691;BME280;28306;55.744;37.578;2023-03-23T02:46:35;99499.84;;;24.53;20.16
42691;BME280;28306;55.744;37.578;2023-03-23T02:49:02;99504.19;;;24.54;20.07
42691;BME280;28306;55.744;37.578;2023-03-23T02:51:29;99499.84;;;24.53;20.14
42691;BME280;28306;55.744;37.578;2023-03-23T02:53:55;99501.47;;;24.54;20.13
42691;BME280;28306;55.744;37.578;2023-03-23T02:56:22;99505.81;;;24.55;20.12
42691;BME280;28306;55.744;37.578;2023-03-23T02:58:49;99503.91;;;24.56;20.12
42691;BME280;28306;55.744;37.578;2023-03-23T03:03:40;99498.25;;;24.57;19.91
42691;BME280;28306;55.744;37.578;2023-03-23T03:06:42;99510.75;;;24.58;20.21
42691;BME280;28306;55.744;37.578;2023-03-23T03:11:28;99495.53;;;24.57;19.93
42691;BME280;28306;55.744;37.578;2023-03-23T03:13:59;99496.34;;;24.58;19.96
42691;BME280;28306;55.744;37.578;2023-03-23T03:21:27;99490.38;;;24.61;19.85
42691;BME280;28306;55.744;37.578;2023-03-23T03:23:56;99493.91;;;24.61;19.91
42691;BME280;28306;55.744;37.578;2023-03-23T03:26:27;99492.84;;;24.62;19.88
42691;BME280;28306;55.744;37.578;2023-03-23T03:28:59;99488.19;;;24.63;20.16
42691;BME280;28306;55.744;37.578;2023-03-23T03:31:30;99486.28;;;24.63;20.00
42691;BME280;28306;55.744;37.578;2023-03-23T03:33:57;99493.38;;;24.64;19.96
42691;BME280;28306;55.744;37.578;2023-03-23T03:36:28;99488.75;;;24.65;19.78
42691;BME280;28306;55.744;37.578;2023-03-23T03:39:05;99486.03;;;24.65;19.96
42691;BME280;28306;55.744;37.578;2023-03-23T03:41:33;99482.22;;;24.66;19.66
42691;BME280;28306;55.744;37.578;2023-03-23T03:43:59;99482.22;;;24.66;19.76
42691;BME280;28306;55.744;37.578;2023-03-23T03:46:24;99474.88;;;24.67;19.84
42691;BME280;28306;55.744;37.578;2023-03-23T03:48:53;99481.97;;;24.68;19.64
42691;BME280;28306;55.744;37.578;2023-03-23T03:51:20;99470.00;;;24.69;20.08
42691;BME280;28306;55.744;37.578;2023-03-23T03:53:49;99472.72;;;24.69;19.86
42691;BME280;28306;55.744;37.578;2023-03-23T03:56:15;99468.09;;;24.69;19.84
42691;BME280;28306;55.744;37.578;2023-03-23T03:58:46;99478.16;;;24.69;19.82
42691;BME280;28306;55.744;37.578;2023-03-23T04:01:45;99477.88;;;24.70;19.81
42691;BME280;28306;55.744;37.578;2023-03-23T04:04:12;99474.34;;;24.70;19.95
42691;BME280;28306;55.744;37.578;2023-03-23T04:06:37;99480.31;;;24.72;19.72
42691;BME280;28306;55.744;37.578;2023-03-23T04:09:03;99482.22;;;24.71;19.77
42691;BME280;28306;55.744;37.578;2023-03-23T04:11:32;99464.00;;;24.72;19.88
42691;BME280;28306;55.744;37.578;2023-03-23T04:14:18;99475.44;;;24.74;19.71
42691;BME280;28306;55.744;37.578;2023-03-23T04:16:44;99465.38;;;24.74;19.96
42691;BME280;28306;55.744;37.578;2023-03-23T04:19:10;99449.84;;;24.75;19.70
42691;BME280;28306;55.744;37.578;2023-03-23T04:21:37;99455.88;;;24.77;19.53
42691;BME280;28306;55.744;37.578;2023-03-23T04:24:03;99461.31;;;24.77;19.75
42691;BME280;28306;55.744;37.578;2023-03-23T04:26:29;99469.19;;;24.78;19.63
42691;BME280;28306;55.744;37.578;2023-03-23T04:29:00;99467.28;;;24.79;19.76
42691;BME280;28306;55.744;37.578;2023-03-23T04:31:34;99466.22;;;24.80;19.76
42691;BME280;28306;55.744;37.578;2023-03-23T04:34:20;99458.84;;;24.80;19.47
42691;BME280;28306;55.744;37.578;2023-03-23T04:36:48;99463.22;;;24.81;19.79
42691;BME280;28306;55.744;37.578;2023-03-23T04:39:19;99461.31;;;24.82;19.61
42691;BME280;28306;55.744;37.578;2023-03-23T04:41:45;99458.31;;;24.83;19.45
42691;BME280;28306;55.744;37.578;2023-03-23T04:44:17;99464.56;;;24.84;19.59
42691;BME280;28306;55.744;37.578;2023-03-23T04:46:54;99459.97;;;24.85;19.60
42691;BME280;28306;55.744;37.578;2023-03-23T04:49:21;99455.34;;;24.85;19.47
42691;BME280;28306;55.744;37.578;2023-03-23T04:51:51;99458.84;;;24.86;19.46
42691;BME280;28306;55.744;37.578;2023-03-23T04:54:39;99457.78;;;24.87;19.65
42691;BME280;28306;55.744;37.578;2023-03-23T04:57:04;99457.50;;;24.88;19.65
42691;BME280;28306;55.744;37.578;2023-03-23T04:59:32;99459.44;;;24.88;19.61
42691;BME280;28306;55.744;37.578;2023-03-23T05:02:04;99464.03;;;24.87;19.65
42691;BME280;28306;55.744;37.578;2023-03-23T05:04:30;99457.25;;;24.90;19.44
42691;BME280;28306;55.744;37.578;2023-03-23T05:07:03;99448.28;;;24.89;19.54
42691;BME280;28306;55.744;37.578;2023-03-23T05:09:31;99467.84;;;24.91;19.40
42691;BME280;28306;55.744;37.578;2023-03-23T05:11:56;99468.41;;;24.93;19.59
42691;BME280;28306;55.744;37.578;2023-03-23T05:14:25;99472.75;;;24.94;19.77
42691;BME280;28306;55.744;37.578;2023-03-23T05:17:06;99467.31;;;24.94;19.82
42691;BME280;28306;55.744;37.578;2023-03-23T05:19:32;99475.22;;;24.96;19.41
42691;BME280;28306;55.744;37.578;2023-03-23T05:22:03;99474.41;;;24.95;19.44
42691;BME280;28306;55.744;37.578;2023-03-23T05:24:39;99473.31;;;24.96;19.68
42691;BME280;28306;55.744;37.578;2023-03-23T05:27:04;99470.31;;;24.98;19.46
42691;BME280;28306;55.744;37.578;2023-03-23T05:29:34;99471.16;;;24.98;19.41
42691;BME280;28306;55.744;37.578;2023-03-23T05:32:03;99477.41;;;24.99;19.76
42691;BME280;28306;55.744;37.578;2023-03-23T05:34:32;99461.06;;;24.99;19.37
42691;BME280;28306;55.744;37.578;2023-03-23T05:37:00;99462.97;;;24.98;19.64
42691;BME280;28306;55.744;37.578;2023-03-23T05:39:32;99461.88;;;24.99;19.40
42691;BME280;28306;55.744;37.578;2023-03-23T05:42:27;99457.28;;;25.00;19.37
42691;BME280;28306;55.744;37.578;2023-03-23T05:45:10;99458.88;;;25.01;19.68
42691;BME280;28306;55.744;37.578;2023-03-23T05:47:38;99461.88;;;24.99;19.37
42691;BME280;28306;55.744;37.578;2023-03-23T05:50:08;99465.16;;;25.02;19.57
42691;BME280;28306;55.744;37.578;2023-03-23T05:52:35;99461.59;;;25.01;19.67
42691;BME280;28306;55.744;37.578;2023-03-23T05:55:04;99468.97;;;25.00;19.69
42691;BME280;28306;55.744;37.578;2023-03-23T05:57:32;99458.88;;;25.01;19.72
42691;BME280;28306;55.744;37.578;2023-03-23T06:00:07;99461.34;;;25.03;19.79
42691;BME280;28306;55.744;37.578;2023-03-23T06:02:38;99462.13;;;25.03;19.63
42691;BME280;28306;55.744;37.578;2023-03-23T06:05:05;99455.63;;;25.04;19.37
42691;BME280;28306;55.744;37.578;2023-03-23T06:07:32;99462.72;;;25.05;19.56
42691;BME280;28306;55.744;37.578;2023-03-23T06:10:01;99466.25;;;25.06;19.32
42691;BME280;28306;55.744;37.578;2023-03-23T06:12:36;99453.44;;;25.06;19.40
42691;BME280;28306;55.744;37.578;2023-03-23T06:15:25;99456.16;;;25.06;19.53
42691;BME280;28306;55.744;37.578;2023-03-23T06:18:12;99459.72;;;25.07;19.42
42691;BME280;28306;55.744;37.578;2023-03-23T06:20:54;99453.16;;;25.08;19.39
42691;BME280;28306;55.744;37.578;2023-03-23T06:23:38;99452.34;;;25.07;19.55
42691;BME280;28306;55.744;37.578;2023-03-23T06:26:05;99459.44;;;25.08;19.41
42691;BME280;28306;55.744;37.578;2023-03-23T06:28:32;99458.59;;;25.08;19.62
42691;BME280;28306;55.744;37.578;2023-03-23T06:31:01;99457.53;;;25.09;19.30
42691;BME280;28306;55.744;37.578;2023-03-23T06:33:27;99453.72;;;25.10;19.53
42691;BME280;28306;55.744;37.578;2023-03-23T06:36:22;99455.34;;;25.11;19.35
42691;BME280;28306;55.744;37.578;2023-03-23T06:39:00;99458.91;;;25.11;19.32
42691;BME280;28306;55.744;37.578;2023-03-23T06:41:42;99448.00;;;25.11;19.24
42691;BME280;28306;55.744;37.578;2023-03-23T06:44:07;99455.06;;;25.12;19.29
42691;BME280;28306;55.744;37.578;2023-03-23T06:46:33;99451.53;;;25.12;19.35
42691;BME280;28306;55.744;37.578;2023-03-23T06:49:19;99449.63;;;25.12;19.25
42691;BME280;28306;55.744;37.578;2023-03-23T06:51:53;99448.56;;;25.13;19.27
42691;BME280;28306;55.744;37.578;2023-03-23T06:54:22;99449.34;;;25.14;19.24
42691;BME280;28306;55.744;37.578;2023-03-23T06:56:49;99434.94;;;25.13;19.31
42691;BME280;28306;55.744;37.578;2023-03-23T06:59:15;99436.59;;;25.14;19.15
42691;BME280;28306;55.744;37.578;2023-03-23T07:01:41;99442.84;;;25.15;19.21
42691;BME280;28306;55.744;37.578;2023-03-23T07:04:07;99444.47;;;25.16;19.19
42691;BME280;28306;55.744;37.578;2023-03-23T07:06:42;99437.13;;;25.16;19.32
42691;BME280;28306;55.744;37.578;2023-03-23T07:09:08;99430.59;;;25.17;19.30
42691;BME280;28306;55.744;37.578;2023-03-23T07:11:34;99431.41;;;25.18;19.33
42691;BME280;28306;55.744;37.578;2023-03-23T07:14:06;99428.69;;;25.18;19.13
42691;BME280;28306;55.744;37.578;2023-03-23T07:16:31;99430.31;;;25.19;19.25
42691;BME280;28306;55.744;37.578;2023-03-23T07:18:57;99434.66;;;25.20;19.42
42691;BME280;28306;55.744;37.578;2023-03-23T07:21:23;99431.66;;;25.22;19.24
42691;BME280;28306;55.744;37.578;2023-03-23T07:23:49;99425.13;;;25.23;19.25
42691;BME280;28306;55.744;37.578;2023-03-23T07:26:30;99427.06;;;25.22;19.37
42691;BME280;28306;55.744;37.578;2023-03-23T07:28:58;99433.03;;;25.24;19.37
42691;BME280;28306;55.744;37.578;2023-03-23T07:31:37;99424.59;;;25.26;19.35
42691;BME280;28306;55.744;37.578;2023-03-23T07:34:03;99423.28;;;25.28;19.21
42691;BME280;28306;55.744;37.578;2023-03-23T07:36:42;99430.91;;;25.31;19.43
42691;BME280;28306;55.744;37.578;2023-03-23T07:39:08;99425.19;;;25.33;19.19
42691;BME280;28306;55.744;37.578;2023-03-23T07:41:34;99426.53;;;25.35;19.39
42691;BME280;28306;55.744;37.578;2023-03-23T07:44:09;99418.06;;;25.37;19.09
42691;BME280;28306;55.744;37.578;2023-03-23T07:46:35;99415.34;;;25.37;19.14
42691;BME280;28306;55.744;37.578;2023-03-23T07:49:13;99414.00;;;25.34;19.35
42691;BME280;28306;55.744;37.578;2023-03-23T07:51:48;99401.47;;;25.33;19.36
42691;BME280;28306;55.744;37.578;2023-03-23T07:54:15;99413.44;;;25.32;19.08
42691;BME280;28306;55.744;37.578;2023-03-23T07:57:00;99403.66;;;25.31;19.00
42691;BME280;28306;55.744;37.578;2023-03-23T07:59:30;99387.31;;;25.31;19.17
42691;BME280;28306;55.744;37.578;2023-03-23T08:01:58;99383.75;;;25.31;18.95
42691;BME280;28306;55.744;37.578;2023-03-23T08:04:24;99394.38;;;25.32;19.10
42691;BME280;28306;55.744;37.578;2023-03-23T08:07:11;99404.47;;;25.32;19.16
42691;BME280;28306;55.744;37.578;2023-03-23T08:09:56;99396.31;;;25.32;19.09
42691;BME280;28306;55.744;37.578;2023-03-23T08:12:54;99395.50;;;25.31;19.02
42691;BME280;28306;55.744;37.578;2023-03-23T08:15:59;99393.56;;;25.32;19.16
42691;BME280;28306;55.744;37.578;2023-03-23T08:19:01;99398.22;;;25.31;19.14
42691;BME280;28306;55.744;37.578;2023-03-23T08:21:46;99394.66;;;25.31;19.00
42691;BME280;28306;55.744;37.578;2023-03-23T08:24:38;99395.50;;;25.31;19.06
42691;BME280;28306;55.744;37.578;2023-03-23T08:27:22;99388.13;;;25.32;19.19
42691;BME280;28306;55.744;37.578;2023-03-23T08:30:07;99378.03;;;25.32;19.39
42691;BME280;28306;55.744;37.578;2023-03-23T08:33:02;99384.34;;;25.33;19.06
42691;BME280;28306;55.744;37.578;2023-03-23T08:36:02;99376.16;;;25.33;19.19
42691;BME280;28306;55.744;37.578;2023-03-23T08:39:03;99380.50;;;25.34;19.26
42691;BME280;28306;55.744;37.578;2023-03-23T08:42:09;99365.28;;;25.33;19.06
42691;BME280;28306;55.744;37.578;2023-03-23T08:45:08;99365.28;;;25.33;19.03
42691;BME280;28306;55.744;37.578;2023-03-23T08:48:12;99359.53;;;25.34;19.10
42691;BME280;28306;55.744;37.578;2023-03-23T08:50:58;99356.00;;;25.34;19.22
42691;BME280;28306;55.744;37.578;2023-03-23T08:53:53;99344.81;;;25.35;19.27
42691;BME280;28306;55.744;37.578;2023-03-23T08:56:39;99338.28;;;25.36;19.09
42691;BME280;28306;55.744;37.578;2023-03-23T08:59:15;99341.00;;;25.36;19.22
42691;BME280;28306;55.744;37.578;2023-03-23T09:02:00;99326.28;;;25.38;18.93
42691;BME280;28306;55.744;37.578;2023-03-23T09:04:35;99323.28;;;25.39;19.18
42691;BME280;28306;55.744;37.578;2023-03-23T09:07:38;99315.94;;;25.40;19.09
42691;BME280;28306;55.744;37.578;2023-03-23T09:10:03;99324.13;;;25.40;18.94
42691;BME280;28306;55.744;37.578;2023-03-23T09:12:29;99319.75;;;25.39;19.15
42691;BME280;28306;55.744;37.578;2023-03-23T09:14:55;99309.66;;;25.39;19.24
42691;BME280;28306;55.744;37.578;2023-03-23T09:17:20;99315.13;;;25.39;19.11
42691;BME280;28306;55.744;37.578;2023-03-23T09:19:46;99305.06;;;25.40;19.20
42691;BME280;28306;55.744;37.578;2023-03-23T09:22:11;99306.66;;;25.41;19.09
42691;BME280;28306;55.744;37.578;2023-03-23T09:24:37;99305.59;;;25.42;19.17
42691;BME280;28306;55.744;37.578;2023-03-23T09:27:02;99295.50;;;25.42;19.20
42691;BME280;28306;55.744;37.578;2023-03-23T09:29:28;99296.34;;;25.43;19.12
42691;BME280;28306;55.744;37.578;2023-03-23T09:31:54;99289.25;;;25.42;19.18
42691;BME280;28306;55.744;37.578;2023-03-23T09:34:21;99288.16;;;25.43;19.20
42691;BME280;28306;55.744;37.578;2023-03-23T09:36:47;99281.88;;;25.42;19.06
42691;BME280;28306;55.744;37.578;2023-03-23T09:39:13;99286.25;;;25.43;19.23
42691;BME280;28306;55.744;37.578;2023-03-23T09:48:58;99265.81;;;25.46;18.91
42691;BME280;28306;55.744;37.578;2023-03-23T09:53:54;99248.38;;;25.47;19.13
42691;BME280;28306;55.744;37.578;2023-03-23T09:56:21;99250.00;;;25.48;19.15
42691;BME280;28306;55.744;37.578;2023-03-23T10:01:19;99239.91;;;25.48;19.12
42691;BME280;28306;55.744;37.578;2023-03-23T10:03:46;99243.19;;;25.50;19.10
42691;BME280;28306;55.744;37.578;2023-03-23T10:06:13;99237.75;;;25.50;19.02
42691;BME280;28306;55.744;37.578;2023-03-23T10:08:47;99241.28;;;25.51;19.22
42691;BME280;28306;55.744;37.578;2023-03-23T10:16:09;99231.75;;;25.53;18.92
42691;BME280;28306;55.744;37.578;2023-03-23T10:18:37;99229.03;;;25.53;19.09
42691;BME280;28306;55.744;37.578;2023-03-23T10:21:03;99229.81;;;25.54;18.98
42691;BME280;28306;55.744;37.578;2023-03-23T10:28:50;99221.09;;;25.57;19.13
42691;BME280;28306;55.744;37.578;2023-03-23T10:31:39;99220.00;;;25.58;18.96
42691;BME280;28306;55.744;37.578;2023-03-23T10:34:27;99218.09;;;25.59;19.14
42691;BME280;28306;55.744;37.578;2023-03-23T10:37:01;99220.53;;;25.60;18.96
42691;BME280;28306;55.744;37.578;2023-03-23T10:39:30;99218.34;;;25.62;18.84
42691;BME280;28306;55.744;37.578;2023-03-23T10:41:59;99218.06;;;25.64;19.00
42691;BME280;28306;55.744;37.578;2023-03-23T10:44:32;99211.53;;;25.65;19.00
42691;BME280;28306;55.744;37.578;2023-03-23T10:49:41;99225.09;;;25.70;18.87
42691;BME280;28306;55.744;37.578;2023-03-23T10:54:46;99216.38;;;25.73;18.73
42691;BME280;28306;55.744;37.578;2023-03-23T10:57:28;99221.53;;;25.75;18.76
42691;BME280;28306;55.744;37.578;2023-03-23T10:59:58;99222.06;;;25.77;18.86
42691;BME280;28306;55.744;37.578;2023-03-23T11:02:24;99228.06;;;25.79;18.75
42691;BME280;28306;55.744;37.578;2023-03-23T11:04:57;99220.41;;;25.81;18.97
42691;BME280;28306;55.744;37.578;2023-03-23T11:07:27;99216.59;;;25.82;18.74
42691;BME280;28306;55.744;37.578;2023-03-23T11:09:54;99214.41;;;25.84;18.88
42691;BME280;28306;55.744;37.578;2023-03-23T11:12:20;99213.03;;;25.86;18.67
42691;BME280;28306;55.744;37.578;2023-03-23T11:14:47;99212.75;;;25.88;18.53
42691;BME280;28306;55.744;37.578;2023-03-23T11:17:26;99214.06;;;25.90;18.71
42691;BME280;28306;55.744;37.578;2023-03-23T11:19:52;99207.25;;;25.93;18.49
42691;BME280;28306;55.744;37.578;2023-03-23T11:25:09;99196.06;;;26.00;18.63
42691;BME280;28306;55.744;37.578;2023-03-23T11:27:37;99211.56;;;26.04;18.56
42691;BME280;28306;55.744;37.578;2023-03-23T11:30:11;99206.63;;;26.06;18.69
42691;BME280;28306;55.744;37.578;2023-03-23T11:32:44;99209.91;;;26.08;18.66
42691;BME280;28306;55.744;37.578;2023-03-23T11:35:24;99209.34;;;26.12;18.48
42691;BME280;28306;55.744;37.578;2023-03-23T11:37:55;99201.69;;;26.14;18.57
42691;BME280;28306;55.744;37.578;2023-03-23T11:40:23;99204.69;;;26.12;18.46
42691;BME280;28306;55.744;37.578;2023-03-23T11:45:19;99217.53;;;26.12;18.64
42691;BME280;28306;55.744;37.578;2023-03-23T11:52:52;99214.78;;;26.12;18.65
42691;BME280;28306;55.744;37.578;2023-03-23T11:55:28;99212.59;;;26.14;18.78
42691;BME280;28306;55.744;37.578;2023-03-23T11:57:55;99210.94;;;26.13;18.79
42691;BME280;28306;55.744;37.578;2023-03-23T12:00:24;99207.13;;;26.14;18.48
42691;BME280;28306;55.744;37.578;2023-03-23T12:02:59;99211.50;;;26.15;18.62
42691;BME280;28306;55.744;37.578;2023-03-23T12:08:48;99201.63;;;26.19;18.69
42691;BME280;28306;55.744;37.578;2023-03-23T12:11:35;99205.44;;;26.23;18.59
42691;BME280;28306;55.744;37.578;2023-03-23T12:16:51;99205.94;;;26.30;18.51
42691;BME280;28306;55.744;37.578;2023-03-23T12:26:55;99191.19;;;26.31;18.71
42691;BME280;28306;55.744;37.578;2023-03-23T12:29:26;99202.66;;;26.28;18.80
42691;BME280;28306;55.744;37.578;2023-03-23T12:31:58;99190.41;;;26.25;18.49
42691;BME280;28306;55.744;37.578;2023-03-23T12:37:06;99193.94;;;26.26;18.61
42691;BME280;28306;55.744;37.578;2023-03-23T12:42:16;99187.94;;;26.29;18.53
42691;BME280;28306;55.744;37.578;2023-03-23T12:44:47;99189.56;;;26.30;18.73
42691;BME280;28306;55.744;37.578;2023-03-23T12:49:42;99181.91;;;26.32;18.77
42691;BME280;28306;55.744;37.578;2023-03-23T12:54:55;99179.69;;;26.34;18.63
42691;BME280;28306;55.744;37.578;2023-03-23T12:57:25;99169.59;;;26.35;18.65
42691;BME280;28306;55.744;37.578;2023-03-23T12:59:55;99175.66;;;26.32;18.45
42691;BME280;28306;55.744;37.578;2023-03-23T13:02:23;99172.66;;;26.28;18.79
42691;BME280;28306;55.744;37.578;2023-03-23T13:04:52;99163.16;;;26.25;18.64
42691;BME280;28306;55.744;37.578;2023-03-23T13:07:22;99164.53;;;26.23;18.61
42691;BME280;28306;55.744;37.578;2023-03-23T13:09:54;99166.44;;;26.22;18.82
42691;BME280;28306;55.744;37.578;2023-03-23T13:12:22;99154.72;;;26.22;18.60
42691;BME280;28306;55.744;37.578;2023-03-23T13:20:11;99155.50;;;26.28;18.60
42691;BME280;28306;55.744;37.578;2023-03-23T13:25:17;99155.72;;;26.31;18.66
42691;BME280;28306;55.744;37.578;2023-03-23T13:27:42;99150.03;;;26.28;18.63
42691;BME280;28306;55.744;37.578;2023-03-23T13:30:19;99159.59;;;26.25;18.73
42691;BME280;28306;55.744;37.578;2023-03-23T13:32:49;99149.53;;;26.20;18.62
42691;BME280;28306;55.744;37.578;2023-03-23T13:35:16;99152.28;;;26.20;18.74
42691;BME280;28306;55.744;37.578;2023-03-23T13:37:45;99145.22;;;26.19;18.93
42691;BME280;28306;55.744;37.578;2023-03-23T13:42:47;99140.84;;;26.18;18.68
42691;BME280;28306;55.744;37.578;2023-03-23T13:45:21;99143.28;;;26.20;18.67
42691;BME280;28306;55.744;37.578;2023-03-23T13:47:48;99141.34;;;26.20;18.92
42691;BME280;28306;55.744;37.578;2023-03-23T14:03:23;99133.47;;;26.19;18.74
42691;BME280;28306;55.744;37.578;2023-03-23T14:13:38;99136.59;;;26.07;18.89
42691;BME280;28306;55.744;37.578;2023-03-23T14:16:03;99126.78;;;26.06;18.95
42691;BME280;28306;55.744;37.578;2023-03-23T14:18:36;99123.25;;;26.05;19.15
42691;BME280;28306;55.744;37.578;2023-03-23T14:21:03;99116.66;;;26.06;19.15
42691;BME280;28306;55.744;37.578;2023-03-23T14:23:30;99112.84;;;26.07;19.17
42691;BME280;28306;55.744;37.578;2023-03-23T14:25:58;99107.63;;;26.11;18.97
42691;BME280;28306;55.744;37.578;2023-03-23T14:28:31;99107.59;;;26.16;19.00
42691;BME280;28306;55.744;37.578;2023-03-23T14:30:58;99102.38;;;26.20;18.86
42691;BME280;28306;55.744;37.578;2023-03-23T14:33:25;99105.63;;;26.22;18.85
42691;BME280;28306;55.744;37.578;2023-03-23T14:35:50;99109.19;;;26.22;18.80
42691;BME280;28306;55.744;37.578;2023-03-23T14:38:19;99109.47;;;26.21;18.89
42691;BME280;28306;55.744;37.578;2023-03-23T14:40:45;99108.13;;;26.18;18.90
42691;BME280;28306;55.744;37.578;2023-03-23T14:43:12;99116.59;;;26.17;18.89
42691;BME280;28306;55.744;37.578;2023-03-23T14:45:39;99112.22;;;26.16;18.81
42691;BME280;28306;55.744;37.578;2023-03-23T14:48:05;99104.34;;;26.14;18.87
42691;BME280;28306;55.744;37.578;2023-03-23T14:50:38;99111.44;;;26.15;19.07
42691;BME280;28306;55.744;37.578;2023-03-23T14:53:16;99107.91;;;26.15;18.95
42691;BME280;28306;55.744;37.578;2023-03-23T14:55:43;99105.69;;;26.17;19.10
42691;BME280;28306;55.744;37.578;2023-03-23T14:58:13;99094.78;;;26.17;18.96
42691;BME280;28306;55.744;37.578;2023-03-23T15:00:40;99102.16;;;26.16;19.01
42691;BME280;28306;55.744;37.578;2023-03-23T15:03:10;99099.13;;;26.18;18.97
42691;BME280;28306;55.744;37.578;2023-03-23T15:05:38;99094.50;;;26.18;18.97
42691;BME280;28306;55.744;37.578;2023-03-23T15:08:06;99099.13;;;26.18;19.13
42691;BME280;28306;55.744;37.578;2023-03-23T15:10:32;99110.84;;;26.18;19.09
42691;BME280;28306;55.744;37.578;2023-03-23T15:12:58;99103.75;;;26.17;18.94
42691;BME280;28306;55.744;37.578;2023-03-23T15:17:49;99092.34;;;26.15;18.93